createdAt,value
2023-02-14T00:02:03.294Z,1.10
2023-02-14T00:04:31.352Z,1.10
2023-02-14T00:07:00.559Z,1.00
2023-02-14T00:09:28.576Z,1.00
2023-02-14T00:11:58.963Z,0.90
2023-02-14T00:14:46.010Z,0.80
2023-02-14T00:17:17.762Z,0.90
2023-02-14T00:19:45.752Z,0.80
2023-02-14T00:22:14.915Z,0.80
2023-02-14T00:27:11.348Z,0.90
2023-02-14T00:29:40.525Z,0.80
2023-02-14T00:32:10.960Z,0.70
2023-02-14T00:34:42.061Z,0.70
2023-02-14T00:37:12.939Z,0.60
2023-02-14T00:39:40.964Z,0.60
2023-02-14T00:42:08.975Z,0.60
2023-02-14T00:44:39.147Z,0.60
2023-02-14T00:47:09.831Z,0.70
2023-02-14T00:49:37.804Z,0.60
2023-02-14T00:52:07.705Z,0.70
2023-02-14T00:54:35.806Z,0.70
2023-02-14T00:57:03.845Z,0.70
2023-02-14T00:59:31.837Z,0.60
2023-02-14T01:01:59.781Z,0.60
2023-02-14T01:04:30.276Z,0.50
2023-02-14T01:06:59.729Z,0.50
2023-02-14T01:09:31.448Z,0.50
2023-02-14T01:12:03.362Z,0.40
2023-02-14T01:14:33.777Z,0.50
2023-02-14T01:17:02.032Z,0.40
2023-02-14T01:19:31.382Z,0.40
2023-02-14T01:22:01.607Z,0.60
2023-02-14T01:24:30.976Z,0.50
2023-02-14T01:27:01.702Z,0.50
2023-02-14T01:29:29.701Z,0.60
2023-02-14T01:31:59.247Z,0.60
2023-02-14T01:34:27.422Z,0.60
2023-02-14T01:36:55.446Z,0.50
2023-02-14T01:39:25.817Z,0.50
2023-02-14T01:41:56.710Z,0.40
2023-02-14T01:44:58.397Z,0.40
2023-02-14T01:47:31.290Z,0.30
2023-02-14T01:50:05.688Z,0.40
2023-02-14T01:52:38.502Z,0.30
2023-02-14T01:55:15.005Z,0.30
2023-02-14T01:57:53.292Z,0.30
2023-02-14T02:00:39.860Z,0.30
2023-02-14T02:03:10.413Z,0.30
2023-02-14T02:05:45.735Z,0.30
2023-02-14T02:08:16.783Z,0.20
2023-02-14T02:13:19.983Z,0.20
2023-02-14T02:16:08.822Z,0.20
2023-02-14T02:18:53.125Z,0.20
2023-02-14T02:22:09.013Z,0.20
2023-02-14T02:24:50.810Z,0.30
2023-02-14T02:27:56.030Z,0.30
2023-02-14T02:30:56.592Z,0.40
2023-02-14T02:34:04.935Z,0.50
2023-02-14T02:37:16.179Z,0.40
2023-02-14T02:40:03.871Z,0.40
2023-02-14T02:42:47.220Z,0.30
2023-02-14T02:45:29.679Z,0.20
2023-02-14T02:48:11.458Z,0.10
2023-02-14T02:51:03.806Z,0.00
2023-02-14T02:53:43.761Z,-0.10
2023-02-14T02:56:35.345Z,0.00
2023-02-14T02:59:18.200Z,0.00
2023-02-14T03:02:00.506Z,0.10
2023-02-14T03:04:46.925Z,0.00
2023-02-14T03:07:33.048Z,0.00
2023-02-14T03:10:13.121Z,-0.10
2023-02-14T03:13:07.951Z,0.00
2023-02-14T03:15:56.718Z,0.00
2023-02-14T03:19:03.539Z,-0.10
2023-02-14T03:21:41.591Z,-0.20
2023-02-14T03:24:21.612Z,-0.10
2023-02-14T03:26:59.037Z,-0.10
2023-02-14T03:29:44.730Z,-0.20
2023-02-14T03:32:19.446Z,-0.20
2023-02-14T03:34:57.214Z,-0.20
2023-02-14T03:37:32.537Z,-0.20
2023-02-14T03:40:09.896Z,0.80
2023-02-14T03:42:47.442Z,-0.20
2023-02-14T03:45:28.870Z,-0.20
2023-02-14T03:48:01.441Z,-0.20
2023-02-14T03:50:34.073Z,-0.20
2023-02-14T03:53:04.248Z,-0.10
2023-02-14T03:55:38.744Z,-0.10
2023-02-14T03:58:17.483Z,-0.10
2023-02-14T04:00:47.641Z,-0.10
2023-02-14T04:03:19.488Z,-0.20
2023-02-14T04:05:52.583Z,-0.20
2023-02-14T04:08:29.739Z,-0.10
2023-02-14T04:11:01.668Z,-0.20
2023-02-14T04:13:32.988Z,-0.20
2023-02-14T04:16:01.230Z,-0.20
2023-02-14T04:18:48.235Z,-0.10
2023-02-14T04:21:18.030Z,0.10
2023-02-14T04:23:46.030Z,0.10
2023-02-14T04:26:15.245Z,0.10
2023-02-14T04:28:45.756Z,0.20
2023-02-14T04:31:13.974Z,0.10
2023-02-14T04:33:42.247Z,0.30
2023-02-14T04:38:41.199Z,0.30
2023-02-14T04:41:10.644Z,0.20
2023-02-14T04:43:39.826Z,0.20
2023-02-14T04:46:09.439Z,0.10
2023-02-14T04:48:39.836Z,0.00
2023-02-14T04:53:40.377Z,-0.10
2023-02-14T04:56:08.935Z,-0.10
2023-02-14T04:58:38.194Z,-0.10
2023-02-14T05:01:06.369Z,-0.20
2023-02-14T05:03:38.108Z,-0.20
2023-02-14T05:06:06.631Z,-0.20
2023-02-14T05:11:06.239Z,-0.40
2023-02-14T05:13:35.465Z,-0.40
2023-02-14T05:16:04.668Z,-0.50
2023-02-14T05:18:33.873Z,-0.50
2023-02-14T05:21:06.019Z,-0.40
2023-02-14T05:28:36.556Z,-0.40
2023-02-14T05:31:06.215Z,-0.40
2023-02-14T05:33:34.369Z,-0.50
2023-02-14T05:36:07.683Z,-0.50
2023-02-14T05:38:36.913Z,-0.50
2023-02-14T05:41:05.230Z,-0.50
2023-02-14T05:43:34.424Z,-0.50
2023-02-14T05:46:04.836Z,-0.50
2023-02-14T05:48:34.535Z,-0.60
2023-02-14T05:51:07.615Z,-0.60
2023-02-14T05:53:36.146Z,-0.60
2023-02-14T05:56:06.409Z,-0.40
2023-02-14T05:58:34.779Z,-0.40
2023-02-14T06:01:02.892Z,-0.50
2023-02-14T06:03:31.030Z,-0.50
2023-02-14T06:06:00.239Z,-0.50
2023-02-14T06:08:29.523Z,-0.50
2023-02-14T06:10:57.661Z,-0.60
2023-02-14T06:13:27.534Z,-0.60
2023-02-14T06:15:58.115Z,-0.50
2023-02-14T06:18:28.043Z,-0.50
2023-02-14T06:23:26.265Z,-0.20
2023-02-14T06:25:56.950Z,0.00
2023-02-14T06:30:54.651Z,0.10
2023-02-14T06:33:24.004Z,0.20
2023-02-14T06:35:56.183Z,0.10
2023-02-14T06:38:25.225Z,0.10
2023-02-14T06:43:24.323Z,-0.10
2023-02-14T06:53:23.516Z,0.00
2023-02-14T06:55:52.711Z,-0.10
2023-02-14T06:58:23.640Z,-0.10
2023-02-14T07:03:23.937Z,-0.20
2023-02-14T07:05:53.703Z,-0.10
2023-02-14T07:08:25.287Z,-0.10
2023-02-14T07:10:57.487Z,-0.10
2023-02-14T07:13:27.353Z,0.00
2023-02-14T07:15:56.792Z,0.10
2023-02-14T07:18:24.798Z,0.10
2023-02-14T07:20:55.391Z,0.30
2023-02-14T07:23:23.590Z,0.30
2023-02-14T07:28:21.932Z,0.30
2023-02-14T07:30:53.766Z,0.40
2023-02-14T07:33:23.018Z,0.40
2023-02-14T07:38:24.583Z,0.50
2023-02-14T07:40:56.459Z,0.70
2023-02-14T07:43:24.456Z,0.80
2023-02-14T07:45:53.977Z,0.90
2023-02-14T07:48:23.651Z,1.10
2023-02-14T07:50:53.089Z,1.40
2023-02-14T07:53:22.753Z,2.10
2023-02-14T07:55:53.212Z,3.00
2023-02-14T07:58:21.339Z,3.80
2023-02-14T08:00:52.371Z,4.50
2023-02-14T08:03:22.985Z,5.20
2023-02-14T08:05:57.189Z,5.80
2023-02-14T08:08:27.307Z,6.30
2023-02-14T08:10:58.189Z,6.60
2023-02-14T08:13:28.549Z,7.00
2023-02-14T08:16:05.946Z,7.50
2023-02-14T08:18:38.646Z,7.40
2023-02-14T08:21:12.326Z,8.00
2023-02-14T08:23:40.502Z,8.70
2023-02-14T08:26:09.198Z,8.90
2023-02-14T08:28:38.628Z,9.10
2023-02-14T08:31:08.389Z,9.40
2023-02-14T08:33:38.217Z,9.70
2023-02-14T08:36:08.305Z,10.00
2023-02-14T08:38:37.786Z,10.30
2023-02-14T08:43:39.637Z,11.00
2023-02-14T08:46:09.635Z,11.40
2023-02-14T08:48:39.608Z,11.70
2023-02-14T08:51:11.941Z,12.00
2023-02-14T08:53:42.286Z,12.40
2023-02-14T08:56:13.490Z,12.40
2023-02-14T08:58:42.824Z,12.60
2023-02-14T09:01:15.486Z,12.50
2023-02-14T09:03:45.244Z,12.70
2023-02-14T09:06:18.261Z,12.90
2023-02-14T09:08:46.989Z,13.20
2023-02-14T09:11:21.948Z,13.50
2023-02-14T09:13:54.406Z,13.80
2023-02-14T09:16:25.579Z,13.90
2023-02-14T09:18:56.717Z,14.00
2023-02-14T09:21:30.447Z,14.10
2023-02-14T09:23:59.930Z,14.40
2023-02-14T09:26:28.749Z,14.30
2023-02-14T09:28:58.301Z,14.60
2023-02-14T09:31:28.889Z,14.90
2023-02-14T09:33:59.642Z,15.00
2023-02-14T09:36:45.851Z,15.20
2023-02-14T09:39:15.521Z,15.40
2023-02-14T09:42:11.653Z,15.50
2023-02-14T09:44:43.803Z,15.80
2023-02-14T09:47:24.364Z,16.10
2023-02-14T09:49:55.755Z,16.30
2023-02-14T09:52:31.366Z,16.40
2023-02-14T09:55:02.782Z,16.10
2023-02-14T09:57:44.041Z,16.50
2023-02-14T10:00:23.942Z,15.90
2023-02-14T10:03:05.748Z,16.20
2023-02-14T10:05:44.645Z,16.40
2023-02-14T10:08:33.116Z,16.40
2023-02-14T10:11:08.056Z,16.40
2023-02-14T10:13:41.731Z,17.10
2023-02-14T10:16:20.366Z,17.30
2023-02-14T10:18:53.358Z,18.00
2023-02-14T10:21:26.948Z,18.50
2023-02-14T10:24:01.176Z,18.90
2023-02-14T10:26:35.907Z,19.20
2023-02-14T10:29:08.114Z,19.40
2023-02-14T10:31:43.079Z,19.80
2023-02-14T10:34:16.976Z,19.20
2023-02-14T10:36:57.480Z,19.20
2023-02-14T10:39:35.889Z,19.50
2023-02-14T10:42:13.375Z,19.60
2023-02-14T10:44:46.907Z,19.40
2023-02-14T10:47:29.971Z,19.10
2023-02-14T10:50:03.310Z,18.80
2023-02-14T10:52:40.241Z,18.60
2023-02-14T10:55:31.585Z,19.50
2023-02-14T10:58:05.362Z,18.50
2023-02-14T11:00:36.591Z,18.60
2023-02-14T11:03:08.297Z,18.80
2023-02-14T11:05:40.221Z,19.00
2023-02-14T11:08:20.535Z,19.20
2023-02-14T11:10:49.958Z,19.50
2023-02-14T11:13:33.317Z,19.70
2023-02-14T11:16:03.840Z,19.60
2023-02-14T11:18:36.109Z,20.50
2023-02-14T11:21:08.396Z,20.30
2023-02-14T11:23:40.438Z,20.50
2023-02-14T11:26:20.117Z,20.80
2023-02-14T11:28:58.266Z,20.80
2023-02-14T11:31:32.954Z,20.50
2023-02-14T11:34:04.976Z,20.30
2023-02-14T11:36:37.475Z,20.40
2023-02-14T11:39:22.123Z,20.40
2023-02-14T11:41:53.408Z,20.40
2023-02-14T11:44:24.359Z,20.50
2023-02-14T11:46:54.561Z,20.60
2023-02-14T11:49:32.870Z,19.80
2023-02-14T11:52:12.042Z,18.70
2023-02-14T11:54:45.052Z,18.40
2023-02-14T11:57:19.346Z,17.30
2023-02-14T11:59:52.656Z,17.30
2023-02-14T12:02:29.079Z,18.00
2023-02-14T12:04:58.569Z,18.90
2023-02-14T12:07:32.151Z,19.80
2023-02-14T12:10:21.959Z,20.50
2023-02-14T12:12:58.196Z,21.80
2023-02-14T12:15:40.186Z,22.80
2023-02-14T12:18:32.626Z,22.10
2023-02-14T12:21:17.348Z,21.60
2023-02-14T12:23:56.978Z,21.20
2023-02-14T12:26:33.197Z,23.30
2023-02-14T12:29:15.385Z,21.60
2023-02-14T12:31:45.983Z,22.00
2023-02-14T12:34:15.796Z,22.10
2023-02-14T12:37:10.370Z,23.00
2023-02-14T12:39:55.049Z,22.30
2023-02-14T12:42:43.030Z,23.40
2023-02-14T12:45:21.052Z,22.50
2023-02-14T12:48:03.817Z,22.60
2023-02-14T12:50:44.479Z,22.80
2023-02-14T12:53:49.182Z,23.10
2023-02-14T12:56:32.129Z,23.40
2023-02-14T12:59:18.594Z,23.50
2023-02-14T13:02:52.004Z,23.70
2023-02-14T13:05:31.354Z,23.50
2023-02-14T13:08:17.611Z,23.70
2023-02-14T13:11:00.208Z,23.60
2023-02-14T13:13:38.252Z,23.20
2023-02-14T13:16:17.225Z,23.10
2023-02-14T13:18:51.020Z,23.20
2023-02-14T13:21:20.940Z,23.30
2023-02-14T13:23:54.009Z,23.40
2023-02-14T13:26:25.799Z,23.40
2023-02-14T13:28:58.253Z,23.20
2023-02-14T13:31:29.166Z,23.70
2023-02-14T13:34:02.026Z,23.20
2023-02-14T13:36:31.001Z,23.20
2023-02-14T13:39:00.167Z,23.00
2023-02-14T13:41:29.650Z,25.20
2023-02-14T13:44:00.139Z,23.00
2023-02-14T13:46:56.817Z,23.00
2023-02-14T13:49:31.581Z,22.10
2023-02-14T13:52:04.776Z,22.20
2023-02-14T13:54:37.060Z,22.20
2023-02-14T13:57:30.237Z,22.40
2023-02-14T14:00:33.088Z,22.40
2023-02-14T14:03:03.791Z,22.20
2023-02-14T14:05:58.557Z,22.20
2023-02-14T14:08:47.093Z,22.20
2023-02-14T14:11:56.607Z,22.10
2023-02-14T14:14:36.482Z,22.20
2023-02-14T14:17:29.013Z,21.10
2023-02-14T14:19:58.735Z,21.60
2023-02-14T14:22:28.212Z,22.40
2023-02-14T14:25:02.182Z,21.50
2023-02-14T14:27:34.314Z,22.30
2023-02-14T14:30:04.420Z,21.80
2023-02-14T14:32:35.814Z,21.80
2023-02-14T14:35:08.799Z,21.90
2023-02-14T14:37:47.631Z,21.90
2023-02-14T14:40:21.041Z,22.70
2023-02-14T14:42:51.076Z,22.00
2023-02-14T14:45:22.799Z,22.20
2023-02-14T14:47:54.119Z,22.20
2023-02-14T14:50:25.629Z,22.20
2023-02-14T14:52:56.593Z,22.20
2023-02-14T14:55:29.382Z,22.00
2023-02-14T14:58:03.773Z,21.90
2023-02-14T15:00:35.336Z,21.80
2023-02-14T15:03:07.702Z,23.10
2023-02-14T15:05:40.171Z,21.80
2023-02-14T15:08:22.823Z,21.70
2023-02-14T15:10:54.642Z,21.60
2023-02-14T15:13:49.291Z,21.40
2023-02-14T15:16:21.270Z,21.90
2023-02-14T15:18:53.410Z,20.40
2023-02-14T15:21:24.293Z,19.90
2023-02-14T15:23:55.761Z,19.60
2023-02-14T15:26:29.086Z,18.40
2023-02-14T15:29:00.908Z,17.20
2023-02-14T15:31:31.745Z,17.10
2023-02-14T15:34:02.839Z,16.70
2023-02-14T15:36:33.392Z,16.40
2023-02-14T15:39:03.469Z,15.20
2023-02-14T15:41:31.471Z,16.00
2023-02-14T15:44:01.684Z,16.80
2023-02-14T15:46:34.885Z,15.60
2023-02-14T15:49:09.121Z,17.70
2023-02-14T15:54:19.243Z,14.60
2023-02-14T15:56:52.651Z,13.80
2023-02-14T15:59:23.367Z,13.70
2023-02-14T16:01:54.507Z,13.70
2023-02-14T16:04:26.743Z,13.80
2023-02-14T16:07:23.933Z,13.90
2023-02-14T16:10:24.827Z,14.20
2023-02-14T16:13:00.405Z,14.00
2023-02-14T16:15:30.386Z,13.40
2023-02-14T16:18:02.381Z,12.80
2023-02-14T16:20:47.082Z,12.60
2023-02-14T16:23:23.569Z,11.70
2023-02-14T16:25:54.192Z,11.70
2023-02-14T16:28:24.819Z,11.30
2023-02-14T16:30:57.205Z,10.90
2023-02-14T16:33:30.001Z,10.50
2023-02-14T16:36:09.231Z,10.40
2023-02-14T16:38:46.572Z,10.10
2023-02-14T16:41:20.161Z,9.90
2023-02-14T16:43:49.673Z,9.60
2023-02-14T16:46:20.773Z,9.30
2023-02-14T16:48:52.687Z,9.10
2023-02-14T16:51:24.573Z,8.80
2023-02-14T16:53:55.966Z,8.50
2023-02-14T16:56:33.221Z,8.20
2023-02-14T16:59:03.645Z,8.00
2023-02-14T17:01:32.142Z,7.80
2023-02-14T17:04:02.686Z,7.60
2023-02-14T17:06:32.781Z,7.40
2023-02-14T17:09:08.075Z,8.40
2023-02-14T17:11:43.846Z,7.20
2023-02-14T17:14:18.372Z,7.10
2023-02-14T17:16:46.719Z,6.50
2023-02-14T17:19:17.727Z,6.80
2023-02-14T17:21:46.974Z,6.70
2023-02-14T17:24:17.564Z,6.60
2023-02-14T17:26:46.864Z,6.50
2023-02-14T17:29:17.299Z,6.30
2023-02-14T17:31:45.453Z,6.20
2023-02-14T17:34:14.748Z,6.00
2023-02-14T17:36:44.596Z,5.90
2023-02-14T17:39:15.960Z,5.70
2023-02-14T17:41:44.087Z,5.60
2023-02-14T17:44:14.644Z,5.40
2023-02-14T17:46:42.715Z,5.30
2023-02-14T17:49:10.781Z,5.30
2023-02-14T17:51:40.295Z,5.30
2023-02-14T17:54:08.594Z,5.40
2023-02-14T17:56:37.786Z,5.30
2023-02-14T17:59:08.228Z,5.30
2023-02-14T18:01:39.096Z,5.00
2023-02-14T18:04:08.351Z,4.90
2023-02-14T18:06:37.810Z,4.60
2023-02-14T18:09:08.905Z,4.80
2023-02-14T18:11:42.200Z,4.70
2023-02-14T18:14:11.286Z,4.70
2023-02-14T18:16:42.429Z,4.60
2023-02-14T18:19:14.339Z,4.60
2023-02-14T18:21:46.119Z,4.90
2023-02-14T18:24:16.155Z,4.80
2023-02-14T18:26:45.470Z,3.70
2023-02-14T18:29:15.239Z,5.10
2023-02-14T18:31:45.618Z,3.80
2023-02-14T18:39:15.408Z,3.10
2023-02-14T18:41:43.685Z,3.20
2023-02-14T18:44:15.405Z,3.90
2023-02-14T18:46:46.542Z,4.20
2023-02-14T18:49:15.374Z,4.70
2023-02-14T18:54:14.444Z,4.90
2023-02-14T18:56:42.569Z,3.70
2023-02-14T18:59:14.533Z,4.00
2023-02-14T19:01:47.132Z,3.90
2023-02-14T19:04:17.881Z,3.50
2023-02-14T19:06:46.017Z,2.80
2023-02-14T19:09:18.265Z,2.70
2023-02-14T19:11:46.290Z,3.60
2023-02-14T19:14:15.508Z,4.40
2023-02-14T19:16:50.434Z,3.60
2023-02-14T19:21:52.053Z,4.20
2023-02-14T19:24:22.364Z,3.10
2023-02-14T19:26:51.537Z,3.90
2023-02-14T19:29:23.392Z,4.40
2023-02-14T19:31:55.638Z,4.30
2023-02-14T19:34:27.997Z,4.20
2023-02-14T19:37:00.494Z,2.70
2023-02-14T19:39:30.529Z,2.10
2023-02-14T19:42:00.879Z,2.20
2023-02-14T19:44:32.241Z,3.40
2023-02-14T19:47:04.216Z,2.60
2023-02-14T19:49:37.401Z,3.70
2023-02-14T19:52:14.174Z,3.80
2023-02-14T19:54:45.987Z,3.00
2023-02-14T19:57:17.354Z,2.60
2023-02-14T19:59:46.534Z,2.60
2023-02-14T20:02:19.829Z,2.40
2023-02-14T20:04:49.051Z,2.40
2023-02-14T20:07:18.197Z,2.90
2023-02-14T20:09:47.353Z,2.60
2023-02-14T20:12:16.490Z,2.90
2023-02-14T20:17:22.361Z,2.30
2023-02-14T20:19:51.822Z,2.60
2023-02-14T20:22:23.034Z,2.40
2023-02-14T20:24:51.629Z,2.60
2023-02-14T20:29:52.769Z,2.40
2023-02-14T20:32:22.387Z,2.00
2023-02-14T20:34:52.177Z,2.00
2023-02-14T20:37:21.368Z,1.80
2023-02-14T20:39:51.212Z,2.30
2023-02-14T20:42:20.979Z,1.70
2023-02-14T20:44:51.471Z,1.80
2023-02-14T20:47:20.044Z,1.90
2023-02-14T20:49:52.338Z,1.90
2023-02-14T20:52:20.452Z,1.70
2023-02-14T20:54:48.472Z,1.60
2023-02-14T20:57:17.636Z,2.10
2023-02-14T20:59:48.362Z,1.50
2023-02-14T21:02:18.332Z,1.70
2023-02-14T21:04:47.797Z,1.40
2023-02-14T21:07:19.139Z,1.80
2023-02-14T21:09:49.583Z,1.60
2023-02-14T21:12:18.857Z,1.70
2023-02-14T21:14:48.552Z,1.70
2023-02-14T21:17:16.735Z,1.60
2023-02-14T21:19:45.995Z,1.60
2023-02-14T21:22:15.573Z,1.40
2023-02-14T21:24:46.170Z,1.40
2023-02-14T21:27:14.145Z,1.30
2023-02-14T21:29:42.261Z,1.30
2023-02-14T21:32:10.337Z,1.20
2023-02-14T21:34:39.652Z,1.30
2023-02-14T21:37:07.711Z,1.20
2023-02-14T21:39:37.885Z,1.20
2023-02-14T21:42:11.356Z,1.30
2023-02-14T21:44:58.364Z,1.20
2023-02-14T21:47:27.662Z,1.10
2023-02-14T21:50:13.647Z,1.10
2023-02-14T21:52:43.329Z,1.10
2023-02-14T21:55:13.780Z,1.20
2023-02-14T21:57:44.299Z,1.00
2023-02-14T22:00:14.395Z,0.90
2023-02-14T22:05:13.983Z,0.90
2023-02-14T22:07:42.567Z,1.00
2023-02-14T22:10:13.774Z,0.90
2023-02-14T22:12:42.155Z,0.80
2023-02-14T22:15:14.508Z,0.80
2023-02-14T22:20:14.418Z,0.60
2023-02-14T22:22:43.266Z,0.60
2023-02-14T22:25:12.778Z,0.30
2023-02-14T22:27:42.082Z,0.50
2023-02-14T22:30:13.580Z,0.50
2023-02-14T22:32:43.119Z,0.50
2023-02-14T22:37:41.990Z,0.50
2023-02-14T22:40:13.323Z,0.40
2023-02-14T22:42:41.388Z,0.40
2023-02-14T22:45:10.606Z,0.40
2023-02-14T22:47:39.915Z,0.40
2023-02-14T22:50:11.479Z,0.30
2023-02-14T22:55:12.218Z,0.30
2023-02-14T23:00:12.787Z,0.20
2023-02-14T23:02:43.409Z,0.10
2023-02-14T23:05:13.862Z,0.00
2023-02-14T23:07:43.027Z,0.50
2023-02-14T23:10:13.229Z,0.00
2023-02-14T23:12:59.974Z,0.10
2023-02-14T23:15:46.184Z,0.10
2023-02-14T23:18:34.273Z,-0.10
2023-02-14T23:21:24.494Z,-0.10
2023-02-14T23:23:53.708Z,-0.10
2023-02-14T23:26:22.874Z,-0.20
2023-02-14T23:28:52.034Z,-0.20
2023-02-14T23:31:21.321Z,-0.30
2023-02-14T23:33:53.281Z,-0.30
2023-02-14T23:36:22.598Z,-0.30
2023-02-14T23:38:52.075Z,-0.40
2023-02-14T23:41:40.200Z,-0.30
2023-02-14T23:44:09.545Z,-0.30
2023-02-14T23:46:38.813Z,-0.30
2023-02-14T23:49:09.623Z,-0.40
2023-02-14T23:51:38.286Z,-0.30
2023-02-14T23:54:06.913Z,-0.40
2023-02-14T23:56:36.890Z,-0.30
2023-02-14T23:59:06.882Z,-0.20
